createdAt,value
2019-02-06T04:17:26.828Z,-5.00
2019-02-06T04:19:56.043Z,-5.00
2019-02-06T04:22:24.970Z,-5.10
2019-02-06T04:24:54.118Z,-5.10
2019-02-06T04:27:23.208Z,-5.10
2019-02-06T04:29:52.283Z,-5.10
2019-02-06T04:32:23.526Z,-5.00
2019-02-06T04:34:52.414Z,-5.10
2019-02-06T04:37:21.554Z,-5.10
2019-02-06T04:39:50.611Z,-5.10
2019-02-06T04:42:19.651Z,-5.00
2019-02-06T04:44:48.739Z,-5.10
2019-02-06T04:47:17.842Z,-5.10
2019-02-06T04:49:46.962Z,-5.20
2019-02-06T04:52:15.967Z,-5.20
2019-02-06T04:54:44.992Z,-5.30
2019-02-06T04:57:14.130Z,-5.20
2019-02-06T04:59:43.138Z,-5.20
2019-02-06T05:02:12.542Z,-5.20
2019-02-06T05:04:42.031Z,-5.20
2019-02-06T05:07:18.736Z,-5.20
2019-02-06T05:09:42.027Z,-5.20
2019-02-06T05:12:11.247Z,-5.20
2019-02-06T05:14:40.400Z,-5.20
2019-02-06T05:17:09.583Z,-5.20
2019-02-06T05:19:38.967Z,-5.20
2019-02-06T05:22:08.338Z,-5.30
2019-02-06T05:24:37.388Z,-5.30
2019-02-06T05:27:06.746Z,-5.30
2019-02-06T05:29:35.747Z,-5.30
2019-02-06T05:32:04.844Z,-5.30
2019-02-06T05:35:37.807Z,-5.30
2019-02-06T05:38:07.385Z,-5.40
2019-02-06T05:40:36.455Z,-5.40
2019-02-06T05:43:05.694Z,-5.60
2019-02-06T05:45:34.811Z,-5.60
2019-02-06T05:48:04.102Z,-5.60
2019-02-06T05:50:33.261Z,-5.70
2019-02-06T05:53:02.338Z,-5.60
2019-02-06T05:55:31.935Z,-5.60
2019-02-06T05:58:01.098Z,-5.60
2019-02-06T06:00:34.436Z,-5.60
2019-02-06T06:03:03.615Z,-5.70
2019-02-06T06:05:32.778Z,-5.70
2019-02-06T06:08:01.815Z,-5.70
2019-02-06T06:10:30.821Z,-5.70
2019-02-06T06:12:59.893Z,-5.70
2019-02-06T06:15:28.994Z,-5.70
2019-02-06T06:17:58.061Z,-5.70
2019-02-06T06:20:27.225Z,-5.80
2019-02-06T06:22:56.460Z,-5.80
2019-02-06T06:25:25.819Z,-5.80
2019-02-06T06:27:55.045Z,-5.90
2019-02-06T06:30:24.218Z,-5.90
2019-02-06T06:32:53.537Z,-5.90
2019-02-06T06:35:22.511Z,-5.50
2019-02-06T06:38:00.444Z,-5.40
2019-02-06T06:40:22.849Z,-5.70
2019-02-06T06:42:52.195Z,-5.80
2019-02-06T06:45:22.508Z,-5.80
2019-02-06T06:47:51.779Z,-5.80
2019-02-06T06:50:23.047Z,-5.80
2019-02-06T06:52:52.364Z,-5.90
2019-02-06T06:55:21.591Z,-6.00
2019-02-06T06:57:50.675Z,-6.00
2019-02-06T07:00:27.589Z,-6.00
2019-02-06T07:02:56.747Z,-6.00
2019-02-06T07:05:25.913Z,-5.90
2019-02-06T07:07:55.431Z,-6.00
2019-02-06T07:10:25.023Z,-6.00
2019-02-06T07:12:54.349Z,-6.00
2019-02-06T07:15:31.496Z,-6.00
2019-02-06T07:18:00.809Z,-5.90
2019-02-06T07:20:29.962Z,-5.90
2019-02-06T07:22:59.483Z,-5.90
2019-02-06T07:25:28.636Z,-5.80
2019-02-06T07:27:57.835Z,-5.80
2019-02-06T07:30:32.432Z,-5.80
2019-02-06T07:33:01.580Z,-5.80
2019-02-06T07:35:30.958Z,-5.60
2019-02-06T07:38:00.418Z,-5.70
2019-02-06T07:40:29.561Z,-5.50
2019-02-06T07:42:58.721Z,-5.50
2019-02-06T07:45:28.639Z,-5.50
2019-02-06T07:47:58.080Z,-5.50
2019-02-06T07:50:30.206Z,-5.50
2019-02-06T07:52:59.715Z,-5.40
2019-02-06T07:55:28.811Z,-5.50
2019-02-06T07:57:58.259Z,-5.40
2019-02-06T08:00:28.035Z,-5.30
2019-02-06T08:02:57.616Z,-5.20
2019-02-06T08:05:26.813Z,-5.30
2019-02-06T08:07:56.415Z,-5.20
2019-02-06T08:10:30.466Z,-5.20
2019-02-06T08:12:59.563Z,-5.20
2019-02-06T08:15:29.180Z,-5.00
2019-02-06T08:17:58.371Z,-4.80
2019-02-06T08:20:27.587Z,-4.80
2019-02-06T08:22:56.962Z,-4.70
2019-02-06T08:25:26.030Z,-4.80
2019-02-06T08:27:55.241Z,-4.70
2019-02-06T08:30:32.639Z,-4.70
2019-02-06T08:33:01.765Z,-4.80
2019-02-06T08:35:31.195Z,-4.80
2019-02-06T08:38:00.367Z,-4.90
2019-02-06T08:40:29.578Z,-4.90
2019-02-06T08:42:58.758Z,-4.80
2019-02-06T08:45:27.941Z,-4.80
2019-02-06T08:47:57.283Z,-4.70
2019-02-06T08:50:26.985Z,-4.50
2019-02-06T08:52:56.254Z,-4.30
2019-02-06T08:55:27.451Z,-4.20
2019-02-06T08:57:56.616Z,-4.00
2019-02-06T09:00:30.691Z,-3.90
2019-02-06T09:03:00.370Z,-3.60
2019-02-06T09:05:29.875Z,-3.60
2019-02-06T09:07:59.149Z,-3.50
2019-02-06T09:10:28.446Z,-3.60
2019-02-06T09:12:57.726Z,-3.50
2019-02-06T09:15:27.494Z,-3.40
2019-02-06T09:17:56.800Z,-3.20
2019-02-06T09:20:26.942Z,-3.10
2019-02-06T09:22:56.205Z,-2.90
2019-02-06T09:25:25.456Z,-3.20
2019-02-06T09:27:54.717Z,-3.40
2019-02-06T09:30:25.782Z,-3.50
2019-02-06T09:32:55.630Z,-3.50
2019-02-06T09:35:24.989Z,-3.40
2019-02-06T09:37:54.251Z,-3.40
2019-02-06T09:40:25.206Z,-3.10
2019-02-06T09:42:54.383Z,-2.90
2019-02-06T09:45:23.675Z,-2.90
2019-02-06T09:47:52.827Z,-2.90
2019-02-06T09:50:27.329Z,-2.90
2019-02-06T09:52:56.642Z,-3.00
2019-02-06T09:55:25.715Z,-3.00
2019-02-06T09:57:54.794Z,-2.90
2019-02-06T10:00:26.068Z,-2.80
2019-02-06T10:02:55.209Z,-2.90
2019-02-06T10:05:24.585Z,-2.70
2019-02-06T10:07:53.707Z,-2.50
2019-02-06T10:10:24.035Z,-2.70
2019-02-06T10:12:53.230Z,-2.70
2019-02-06T10:15:24.366Z,-2.80
2019-02-06T10:17:53.699Z,-2.70
2019-02-06T10:20:24.303Z,-2.60
2019-02-06T10:22:55.063Z,-2.50
2019-02-06T10:25:24.255Z,-2.30
2019-02-06T10:27:53.323Z,-1.90
2019-02-06T10:30:43.342Z,-1.70
2019-02-06T10:33:12.602Z,-1.50
2019-02-06T10:35:41.617Z,-1.50
2019-02-06T10:38:11.135Z,-1.30
2019-02-06T10:40:40.293Z,-1.30
2019-02-06T10:43:09.522Z,-1.30
2019-02-06T10:45:38.937Z,-1.70
2019-02-06T10:48:08.108Z,-1.90
2019-02-06T10:50:39.866Z,-2.20
2019-02-06T10:53:09.042Z,-2.50
2019-02-06T10:55:38.189Z,-2.40
2019-02-06T10:58:07.583Z,-2.30
2019-02-06T11:01:00.103Z,-2.00
2019-02-06T11:03:29.240Z,-2.10
2019-02-06T11:05:58.490Z,-2.00
2019-02-06T11:08:27.658Z,-2.10
2019-02-06T11:10:57.155Z,-2.10
2019-02-06T11:13:26.479Z,-2.20
2019-02-06T11:15:55.745Z,-2.20
2019-02-06T11:18:24.882Z,-2.20
2019-02-06T11:20:54.010Z,-2.20
2019-02-06T11:23:23.027Z,-2.30
2019-02-06T11:25:52.053Z,-2.10
2019-02-06T11:28:21.121Z,-1.70
2019-02-06T11:30:50.404Z,-1.60
2019-02-06T11:33:19.544Z,-1.70
2019-02-06T11:35:48.694Z,-1.90
2019-02-06T11:38:17.931Z,-1.80
2019-02-06T11:40:47.026Z,-1.50
2019-02-06T11:43:16.024Z,-1.50
2019-02-06T11:45:45.199Z,-1.40
2019-02-06T11:48:14.344Z,-1.30
2019-02-06T11:50:44.569Z,-1.30
2019-02-06T11:53:22.470Z,-1.20
2019-02-06T11:55:51.827Z,-0.80
2019-02-06T11:58:20.887Z,-0.70
2019-02-06T12:01:02.855Z,-0.40
2019-02-06T12:03:31.936Z,-0.30
2019-02-06T12:06:01.078Z,-0.30
2019-02-06T12:08:31.256Z,-0.20
2019-02-06T12:11:00.351Z,-0.30
2019-02-06T12:13:29.469Z,-0.20
2019-02-06T12:15:58.496Z,0.20
2019-02-06T12:18:27.623Z,0.40
2019-02-06T12:20:56.830Z,0.70
2019-02-06T12:23:32.446Z,0.60
2019-02-06T12:25:57.054Z,0.70
2019-02-06T12:28:26.191Z,0.40
2019-02-06T12:30:56.234Z,0.60
2019-02-06T12:33:25.380Z,0.70
2019-02-06T12:35:54.592Z,0.40
2019-02-06T12:38:23.758Z,0.10
2019-02-06T12:40:52.816Z,0.20
2019-02-06T12:43:21.874Z,0.10
2019-02-06T12:45:50.820Z,-0.10
2019-02-06T12:48:19.957Z,-0.20
2019-02-06T12:50:49.125Z,-0.40
2019-02-06T12:53:18.396Z,-0.20
2019-02-06T12:55:47.530Z,-0.20
2019-02-06T12:58:16.910Z,-0.10
2019-02-06T13:00:46.067Z,-0.20
2019-02-06T13:03:15.319Z,-0.30
2019-02-06T13:05:44.476Z,-0.60
2019-02-06T13:08:13.604Z,-0.70
2019-02-06T13:10:42.703Z,-0.50
2019-02-06T13:13:11.894Z,-0.30
2019-02-06T13:15:41.086Z,-0.40
2019-02-06T13:18:10.238Z,-0.50
2019-02-06T13:20:39.718Z,-0.60
2019-02-06T13:23:08.890Z,-0.40
2019-02-06T13:25:37.903Z,-0.30
2019-02-06T13:28:08.257Z,-0.30
2019-02-06T13:30:37.714Z,-0.30
2019-02-06T13:33:07.546Z,-0.40
2019-02-06T13:35:37.051Z,-0.50
2019-02-06T13:38:06.426Z,-0.50
2019-02-06T13:40:45.248Z,-0.60
2019-02-06T13:43:06.702Z,-0.60
2019-02-06T13:45:38.581Z,-0.60
2019-02-06T13:48:07.721Z,-0.60
2019-02-06T13:50:37.429Z,-0.70
2019-02-06T13:53:06.704Z,-0.80
2019-02-06T13:55:35.859Z,-0.90
2019-02-06T13:58:06.050Z,-1.00
2019-02-06T14:00:36.411Z,-1.20
2019-02-06T14:03:06.715Z,-1.40
2019-02-06T14:05:36.775Z,-1.50
2019-02-06T14:08:24.330Z,-1.50
2019-02-06T14:11:00.240Z,-1.60
2019-02-06T14:13:24.863Z,-1.90
2019-02-06T14:15:54.057Z,-2.00
2019-02-06T14:18:23.321Z,-2.10
2019-02-06T14:20:53.837Z,-2.10
2019-02-06T14:23:30.342Z,-2.10
2019-02-06T14:26:14.978Z,-2.30
2019-02-06T14:29:20.982Z,-2.50
2019-02-06T14:32:18.276Z,-2.60
2019-02-06T14:35:05.870Z,-2.60
2019-02-06T14:38:28.092Z,-2.60
2019-02-06T14:41:09.830Z,-2.70
2019-02-06T14:44:23.048Z,-2.70
2019-02-06T14:47:39.394Z,-2.70
2019-02-06T14:50:40.106Z,-2.60
2019-02-06T14:53:32.586Z,-2.70
2019-02-06T14:56:54.762Z,-2.80
2019-02-06T14:59:50.868Z,-2.80
2019-02-06T15:03:00.287Z,-2.80
2019-02-06T15:06:02.198Z,-2.90
2019-02-06T15:09:03.479Z,-3.00
2019-02-06T15:11:41.183Z,-3.00
2019-02-06T15:14:48.020Z,-3.10
2019-02-06T15:17:42.203Z,-3.00
2019-02-06T15:20:50.766Z,-2.90
2019-02-06T15:24:00.706Z,-3.00
2019-02-06T15:27:03.975Z,-3.00
2019-02-06T15:29:57.878Z,-3.10
2019-02-06T15:33:04.521Z,-3.20
2019-02-06T15:36:00.046Z,-3.20
2019-02-06T15:39:22.329Z,-3.30
2019-02-06T15:42:21.387Z,-3.30
2019-02-06T15:45:16.303Z,-3.30
2019-02-06T15:48:10.903Z,-3.30
2019-02-06T15:51:42.194Z,-3.40
2019-02-06T15:54:39.006Z,-3.40
2019-02-06T15:57:47.785Z,-3.40
2019-02-06T16:00:42.970Z,-3.40
2019-02-06T16:04:17.435Z,-3.40
2019-02-06T16:07:26.396Z,-3.50
2019-02-06T16:10:09.474Z,-3.60
2019-02-06T16:13:10.297Z,-3.60
2019-02-06T16:15:55.444Z,-3.70
2019-02-06T16:18:45.407Z,-3.70
2019-02-06T16:21:36.214Z,-3.70
2019-02-06T16:24:58.607Z,-3.70
2019-02-06T16:27:59.854Z,-3.60
2019-02-06T16:30:47.714Z,-3.70
2019-02-06T16:33:41.872Z,-3.80
2019-02-06T16:36:54.222Z,-3.80
2019-02-06T16:39:35.220Z,-3.90
2019-02-06T16:42:48.582Z,-4.00
2019-02-06T16:46:03.858Z,-4.00
2019-02-06T16:48:59.906Z,-3.90
2019-02-06T16:52:09.083Z,-4.10
2019-02-06T16:55:21.452Z,-4.20
2019-02-06T16:58:02.430Z,-4.30
2019-02-06T17:01:21.031Z,-4.30
2019-02-06T17:04:13.585Z,-4.30
2019-02-06T17:07:29.744Z,-4.40
2019-02-06T17:10:44.667Z,-4.50
2019-02-06T17:14:26.131Z,-4.60
2019-02-06T17:17:25.202Z,-4.60
2019-02-06T17:20:33.907Z,-4.60
2019-02-06T17:23:28.319Z,-4.70
2019-02-06T17:26:07.383Z,-4.70
2019-02-06T17:28:52.473Z,-4.70
2019-02-06T17:32:07.463Z,-4.70
2019-02-06T17:35:14.237Z,-4.70
2019-02-06T17:38:21.711Z,-4.70
2019-02-06T17:41:04.964Z,-4.70
2019-02-06T17:44:12.771Z,-4.70
2019-02-06T17:46:53.375Z,-4.60
2019-02-06T17:49:48.854Z,-4.70
2019-02-06T17:53:02.729Z,-4.60
2019-02-06T17:55:31.749Z,-4.70
2019-02-06T17:58:03.167Z,-4.70
2019-02-06T18:00:48.647Z,-4.70
2019-02-06T18:03:17.805Z,-4.70
2019-02-06T18:05:47.764Z,-4.90
2019-02-06T18:08:17.178Z,-4.80
2019-02-06T18:10:46.562Z,-4.90
2019-02-06T18:13:16.797Z,-5.00
2019-02-06T18:15:46.128Z,-5.00
2019-02-06T18:18:15.332Z,-5.10
2019-02-06T18:20:44.799Z,-5.10
2019-02-06T18:23:13.986Z,-5.10
2019-02-06T18:25:43.667Z,-5.10
2019-02-06T18:28:12.842Z,-5.10
2019-02-06T18:30:42.001Z,-5.20
2019-02-06T18:33:12.583Z,-5.10
2019-02-06T18:35:41.885Z,-5.10
2019-02-06T18:38:11.693Z,-5.10
2019-02-06T18:40:43.659Z,-5.10
2019-02-06T18:43:12.874Z,-5.20
2019-02-06T18:45:42.175Z,-5.20
2019-02-06T18:48:11.365Z,-5.30
2019-02-06T18:50:40.953Z,-5.30
2019-02-06T18:53:10.357Z,-5.20
2019-02-06T18:55:39.835Z,-5.20
2019-02-06T18:58:09.418Z,-5.10
2019-02-06T19:00:38.947Z,-5.10
2019-02-06T19:03:12.714Z,-5.00
2019-02-06T19:05:41.866Z,-5.00
2019-02-06T19:08:11.286Z,-5.00
2019-02-06T19:10:40.516Z,-5.10
2019-02-06T19:13:10.094Z,-5.20
2019-02-06T19:15:39.661Z,-5.20
2019-02-06T19:18:10.629Z,-5.20
2019-02-06T19:20:39.951Z,-5.20
2019-02-06T19:23:09.553Z,-5.50
2019-02-06T19:25:38.797Z,-5.20
2019-02-06T19:28:08.093Z,-5.20
2019-02-06T19:30:38.691Z,-5.20
2019-02-06T19:33:08.643Z,-5.20
2019-02-06T19:35:37.889Z,-5.30
2019-02-06T19:38:07.556Z,-5.20
2019-02-06T19:40:38.838Z,-5.20
2019-02-06T19:43:07.988Z,-5.20
2019-02-06T19:45:38.631Z,-5.20
2019-02-06T19:48:15.827Z,-5.20
2019-02-06T19:50:39.887Z,-5.20
2019-02-06T19:53:09.112Z,-5.20
2019-02-06T19:55:38.585Z,-5.10
2019-02-06T19:58:08.159Z,-5.10
2019-02-06T20:00:37.719Z,-5.10
2019-02-06T20:03:08.301Z,-5.10
2019-02-06T20:05:37.766Z,-5.10
2019-02-06T20:08:07.613Z,-5.20
2019-02-06T20:10:39.427Z,-5.20
2019-02-06T20:13:12.399Z,-5.30
2019-02-06T20:15:39.610Z,-5.30
2019-02-06T20:18:09.092Z,-5.30
2019-02-06T20:20:38.426Z,-5.30
2019-02-06T20:23:07.655Z,-5.40
2019-02-06T20:25:36.918Z,-5.40
2019-02-06T20:28:06.070Z,-5.40
2019-02-06T20:30:35.488Z,-5.50
2019-02-06T20:33:04.787Z,-5.50
2019-02-06T20:35:34.329Z,-5.50
2019-02-06T20:38:03.583Z,-5.40
2019-02-06T20:40:34.687Z,-5.50
2019-02-06T20:43:04.125Z,-5.50
2019-02-06T20:45:33.410Z,-5.50
2019-02-06T20:48:02.588Z,-5.50
2019-02-06T20:50:32.806Z,-5.50
2019-02-06T20:53:02.499Z,-5.50
2019-02-06T20:55:31.656Z,-5.50
2019-02-06T20:58:00.794Z,-5.50
2019-02-06T21:00:35.383Z,-5.50
2019-02-06T21:03:05.334Z,-5.50
2019-02-06T21:05:34.601Z,-5.50
2019-02-06T21:08:04.464Z,-5.50
2019-02-06T21:10:33.723Z,-5.50
2019-02-06T21:13:03.002Z,-5.50
2019-02-06T21:15:32.929Z,-5.40
2019-02-06T21:18:02.227Z,-5.50
2019-02-06T21:20:31.368Z,-5.40
2019-02-06T21:23:01.066Z,-5.40
2019-02-06T21:25:30.544Z,-5.50
2019-02-06T21:28:00.001Z,-5.40
2019-02-06T21:30:31.131Z,-5.50
2019-02-06T21:33:00.323Z,-5.60
2019-02-06T21:35:29.473Z,-5.60
2019-02-06T21:37:59.077Z,-5.60
2019-02-06T21:40:30.215Z,-5.70
2019-02-06T21:42:59.321Z,-5.70
2019-02-06T21:45:28.812Z,-5.80
2019-02-06T21:47:57.915Z,-5.90
2019-02-06T21:50:27.072Z,-5.90
2019-02-06T21:52:56.590Z,-5.90
2019-02-06T21:55:25.738Z,-6.00
2019-02-06T21:57:54.919Z,-6.00
2019-02-06T22:00:29.102Z,-6.10
2019-02-06T22:02:58.375Z,-6.10
2019-02-06T22:05:27.827Z,-6.10
2019-02-06T22:07:57.021Z,-6.10
2019-02-06T22:10:26.185Z,-6.00
2019-02-06T22:12:55.350Z,-6.00
2019-02-06T22:15:25.925Z,-6.00
2019-02-06T22:17:55.103Z,-6.00
2019-02-06T22:20:24.961Z,-6.00
2019-02-06T22:22:54.048Z,-6.00
2019-02-06T22:25:23.182Z,-6.00
2019-02-06T22:27:52.331Z,-6.00
2019-02-06T22:30:23.345Z,-6.00
2019-02-06T22:32:52.675Z,-6.00
2019-02-06T22:35:22.238Z,-6.00
2019-02-06T22:37:51.412Z,-6.00
2019-02-06T22:40:22.051Z,-6.10
2019-02-06T22:42:51.353Z,-6.20
2019-02-06T22:45:22.423Z,-6.20
2019-02-06T22:47:51.701Z,-6.20
2019-02-06T22:50:22.793Z,-6.30
2019-02-06T22:52:51.988Z,-6.40
2019-02-06T22:55:21.346Z,-6.30
2019-02-06T22:57:50.503Z,-6.30
2019-02-06T23:00:43.022Z,-6.30
2019-02-06T23:03:12.306Z,-6.30
2019-02-06T23:05:41.434Z,-6.40
2019-02-06T23:08:10.821Z,-6.40
2019-02-06T23:10:39.982Z,-6.40
2019-02-06T23:13:09.626Z,-6.40
2019-02-06T23:15:39.130Z,-6.40
2019-02-06T23:18:08.269Z,-6.40
2019-02-06T23:20:37.429Z,-6.40
2019-02-06T23:23:06.726Z,-6.40
2019-02-06T23:25:35.878Z,-6.40
2019-02-06T23:28:04.956Z,-6.30
